Time;durP1;ratioP1;P1;durP2;ratioP2;P2;SDS_P1;SDS_P2;PMS_P1;PMS_P2;Temp;Humidity;BMP_temperature;BMP_pressure;BME280_temperature;BME280_humidity;BME280_pressure;Samples;Min_cycle;Max_cycle;Signal;HPM_P1;HPM_P2
2021/11/23 00:02:12;;;;;;;;;24.50;21.50;;;;;;;;5034329;28;45456;-77
2021/11/23 00:04:40;;;;;;;;;19.75;18.25;;;;;;;;5034883;28;45458;-77
2021/11/23 00:07:12;;;;;;;;;22.75;20.00;;;;;;;;5016940;28;46608;-78
2021/11/23 00:09:40;;;;;;;;;24.25;21.25;;;;;;;;5034440;28;45484;-77
2021/11/23 00:12:06;;;;;;;;;22.50;17.75;;;;;;;;5035426;28;45494;-76
2021/11/23 00:14:32;;;;;;;;;17.25;16.75;;;;;;;;5034013;28;45510;-76
2021/11/23 00:16:57;;;;;;;;;23.75;19.25;;;;;;;;5032237;28;46432;-78
2021/11/23 00:19:22;;;;;;;;;25.75;24.50;;;;;;;;5033946;28;45347;-77
2021/11/23 00:21:47;;;;;;;;;21.50;19.50;;;;;;;;5034057;28;45452;-77
2021/11/23 00:24:12;;;;;;;;;23.75;23.75;;;;;;;;5034246;28;45323;-77
2021/11/23 00:26:38;;;;;;;;;38.25;30.75;;;;;;;;5034180;28;45451;-77
2021/11/23 00:29:03;;;;;;;;;42.75;37.00;;;;;;;;5033518;28;45463;-78
2021/11/23 00:31:28;;;;;;;;;33.50;31.00;;;;;;;;5033552;28;45462;-77
2021/11/23 00:33:53;;;;;;;;;39.00;35.25;;;;;;;;5033799;28;45431;-78
2021/11/23 00:36:19;;;;;;;;;45.00;36.50;;;;;;;;5033779;28;45724;-77
2021/11/23 00:38:45;;;;;;;;;51.00;40.00;;;;;;;;5034245;28;45388;-77
2021/11/23 00:41:12;;;;;;;;;50.00;40.00;;;;;;;;5033806;28;45519;-77
2021/11/23 00:43:37;;;;;;;;;51.00;42.25;;;;;;;;5034238;28;45554;-78
2021/11/23 00:46:02;;;;;;;;;48.25;42.00;;;;;;;;5035991;28;46183;-78
2021/11/23 00:48:28;;;;;;;;;53.25;44.75;;;;;;;;5036654;28;45364;-78
2021/11/23 00:50:53;;;;;;;;;59.00;47.50;;;;;;;;5019419;28;45456;-77
2021/11/23 00:53:18;;;;;;;;;67.50;48.25;;;;;;;;5036671;28;45633;-78
2021/11/23 00:55:44;;;;;;;;;49.75;40.00;;;;;;;;5036481;28;45946;-78
2021/11/23 00:58:09;;;;;;;;;43.75;37.75;;;;;;;;5036685;28;45375;-78
2021/11/23 01:00:35;;;;;;;;;43.25;36.25;;;;;;;;5036571;28;45563;-78
2021/11/23 01:03:00;;;;;;;;;31.50;26.00;;;;;;;;5037228;28;45382;-78
2021/11/23 01:05:26;;;;;;;;;23.00;20.75;;;;;;;;5036641;28;47275;-78
2021/11/23 01:07:51;;;;;;;;;25.75;23.25;;;;;;;;5036770;28;45439;-78
2021/11/23 01:10:16;;;;;;;;;28.50;23.25;;;;;;;;5038596;28;45473;-78
2021/11/23 01:12:42;;;;;;;;;24.00;21.75;;;;;;;;5018724;28;45650;-78
2021/11/23 01:15:07;;;;;;;;;25.00;19.50;;;;;;;;5036118;28;45491;-77
2021/11/23 01:17:32;;;;;;;;;26.00;20.75;;;;;;;;5036811;28;45364;-77
2021/11/23 01:19:58;;;;;;;;;23.75;21.75;;;;;;;;5036324;28;45551;-77
2021/11/23 01:22:23;;;;;;;;;25.50;23.50;;;;;;;;5036498;28;45500;-77
2021/11/23 01:24:48;;;;;;;;;24.75;22.75;;;;;;;;5036069;28;45427;-76
2021/11/23 01:27:14;;;;;;;;;24.50;18.75;;;;;;;;5036043;28;45419;-77
2021/11/23 01:29:39;;;;;;;;;20.25;17.25;;;;;;;;5036490;28;45418;-77
2021/11/23 01:32:04;;;;;;;;;20.00;20.00;;;;;;;;5036062;28;45462;-78
2021/11/23 01:34:30;;;;;;;;;26.75;23.50;;;;;;;;5035536;28;47708;-77
2021/11/23 01:36:55;;;;;;;;;20.25;19.00;;;;;;;;5035811;28;45245;-78
2021/11/23 01:39:22;;;;;;;;;26.75;23.75;;;;;;;;5036262;28;45457;-78
2021/11/23 01:41:47;;;;;;;;;16.25;14.50;;;;;;;;5036677;28;45399;-78
2021/11/23 01:44:12;;;;;;;;;26.50;22.75;;;;;;;;5035484;28;46085;-78
2021/11/23 01:46:38;;;;;;;;;18.25;17.25;;;;;;;;5036156;28;45545;-78
2021/11/23 01:49:03;;;;;;;;;25.00;24.75;;;;;;;;5036152;28;45320;-77
2021/11/23 01:51:28;;;;;;;;;25.25;23.75;;;;;;;;5036199;28;45217;-78
2021/11/23 01:53:53;;;;;;;;;26.50;20.50;;;;;;;;5036628;28;46530;-78
2021/11/23 01:56:19;;;;;;;;;30.75;28.75;;;;;;;;5034882;28;45437;-78
2021/11/23 01:58:44;;;;;;;;;28.75;24.75;;;;;;;;5035557;28;45384;-78
2021/11/23 02:01:09;;;;;;;;;27.25;17.00;;;;;;;;5035899;28;45272;-78
2021/11/23 02:03:35;;;;;;;;;32.75;24.50;;;;;;;;5035808;28;45588;-77
2021/11/23 02:06:00;;;;;;;;;24.00;21.00;;;;;;;;5036228;28;45393;-78
2021/11/23 02:08:26;;;;;;;;;26.25;24.25;;;;;;;;5036167;28;45470;-76
2021/11/23 02:10:51;;;;;;;;;28.00;23.50;;;;;;;;5035773;28;45600;-77
2021/11/23 02:13:16;;;;;;;;;26.25;21.75;;;;;;;;5035027;28;45494;-76
2021/11/23 02:15:42;;;;;;;;;29.00;24.50;;;;;;;;5035751;28;45540;-77
2021/11/23 02:18:14;;;;;;;;;23.50;19.50;;;;;;;;5036251;28;45345;-77
2021/11/23 02:20:40;;;;;;;;;25.00;20.75;;;;;;;;5034411;28;45471;-77
2021/11/23 02:23:05;;;;;;;;;19.75;19.00;;;;;;;;5035270;28;46075;-77
2021/11/23 02:25:31;;;;;;;;;23.50;22.25;;;;;;;;5035528;28;45557;-77
2021/11/23 02:27:56;;;;;;;;;27.25;24.50;;;;;;;;5035333;28;45589;-77
2021/11/23 02:30:21;;;;;;;;;23.25;18.25;;;;;;;;5035606;28;45277;-77
2021/11/23 02:32:52;;;;;;;;;22.25;18.50;;;;;;;;5036009;28;45430;-77
2021/11/23 02:35:18;;;;;;;;;24.25;22.00;;;;;;;;5035263;28;45534;-76
2021/11/23 02:37:44;;;;;;;;;19.50;16.25;;;;;;;;5035171;28;45473;-77
2021/11/23 02:40:10;;;;;;;;;22.50;19.00;;;;;;;;5035514;28;45394;-76
2021/11/23 02:42:35;;;;;;;;;28.00;24.25;;;;;;;;5034910;28;45521;-77
2021/11/23 02:45:00;;;;;;;;;19.75;19.75;;;;;;;;5035948;28;45520;-78
2021/11/23 02:47:25;;;;;;;;;22.25;22.25;;;;;;;;5017885;28;45534;-77
2021/11/23 02:49:50;;;;;;;;;23.00;21.00;;;;;;;;5035071;28;45363;-77
2021/11/23 02:52:16;;;;;;;;;22.00;17.75;;;;;;;;5017095;28;46579;-76
2021/11/23 02:54:52;;;;;;;;;22.75;18.00;;;;;;;;5035010;28;45285;-76
2021/11/23 02:57:22;;;;;;;;;24.00;23.00;;;;;;;;5034971;28;45396;-76
2021/11/23 02:59:47;;;;;;;;;21.00;18.75;;;;;;;;5035662;28;45250;-76
2021/11/23 03:02:15;;;;;;;;;33.50;28.25;;;;;;;;5034814;28;45468;-76
2021/11/23 03:04:40;;;;;;;;;20.00;19.50;;;;;;;;5034678;28;45526;-75
2021/11/23 03:07:10;;;;;;;;;21.00;18.75;;;;;;;;5034868;28;45500;-76
2021/11/23 03:09:36;;;;;;;;;18.25;16.00;;;;;;;;5034718;28;45503;-76
2021/11/23 03:12:01;;;;;;;;;18.00;17.75;;;;;;;;5034590;28;45348;-77
2021/11/23 03:14:26;;;;;;;;;23.25;20.25;;;;;;;;5034955;28;45469;-77
2021/11/23 03:16:51;;;;;;;;;23.50;19.75;;;;;;;;5034789;28;45339;-76
2021/11/23 03:19:16;;;;;;;;;24.75;24.75;;;;;;;;5034642;28;45455;-77
2021/11/23 03:21:42;;;;;;;;;26.00;24.25;;;;;;;;5034216;28;49273;-75
2021/11/23 03:24:07;;;;;;;;;26.00;24.00;;;;;;;;5034729;28;45482;-76
2021/11/23 03:26:33;;;;;;;;;25.00;20.50;;;;;;;;5034633;28;45426;-76
2021/11/23 03:28:58;;;;;;;;;22.75;19.50;;;;;;;;5034507;28;45333;-76
2021/11/23 03:31:23;;;;;;;;;25.00;22.75;;;;;;;;5034226;28;46140;-78
2021/11/23 03:33:48;;;;;;;;;25.25;21.50;;;;;;;;5034490;28;45576;-78
2021/11/23 03:36:13;;;;;;;;;23.75;22.50;;;;;;;;5034882;28;45396;-78
2021/11/23 03:38:39;;;;;;;;;25.25;21.25;;;;;;;;5034995;28;45394;-78
2021/11/23 03:41:04;;;;;;;;;23.75;22.00;;;;;;;;5033805;28;45512;-78
2021/11/23 03:43:29;;;;;;;;;23.25;19.50;;;;;;;;5034188;28;45420;-78
2021/11/23 03:45:54;;;;;;;;;30.25;19.75;;;;;;;;5034438;28;45485;-78
2021/11/23 03:48:19;;;;;;;;;28.25;25.00;;;;;;;;5034221;28;45647;-77
2021/11/23 03:50:45;;;;;;;;;23.75;21.50;;;;;;;;5034613;28;45375;-77
2021/11/23 03:53:10;;;;;;;;;25.00;21.75;;;;;;;;5033990;28;45614;-76
2021/11/23 03:55:36;;;;;;;;;26.25;23.25;;;;;;;;5033845;28;46133;-76
2021/11/23 03:58:02;;;;;;;;;57.75;43.75;;;;;;;;5033947;28;45542;-76
2021/11/23 04:00:27;;;;;;;;;31.00;23.00;;;;;;;;5034033;28;45401;-77
2021/11/23 04:02:54;;;;;;;;;22.50;19.75;;;;;;;;5034512;28;45406;-77
2021/11/23 04:05:19;;;;;;;;;27.50;19.00;;;;;;;;5034300;28;45782;-78
2021/11/23 04:07:44;;;;;;;;;24.00;21.75;;;;;;;;5034100;28;45558;-77
2021/11/23 04:10:11;;;;;;;;;26.25;26.25;;;;;;;;5033752;28;46842;-76
2021/11/23 04:12:36;;;;;;;;;18.75;18.50;;;;;;;;5033931;28;45446;-76
2021/11/23 04:15:02;;;;;;;;;23.50;20.50;;;;;;;;5034353;28;45334;-77
2021/11/23 04:17:27;;;;;;;;;24.00;19.50;;;;;;;;5034171;28;45588;-76
2021/11/23 04:19:52;;;;;;;;;27.00;22.50;;;;;;;;5035903;28;46146;-76
2021/11/23 04:22:18;;;;;;;;;26.75;25.00;;;;;;;;5037100;28;45236;-78
2021/11/23 04:24:43;;;;;;;;;27.00;21.75;;;;;;;;5037094;28;45429;-76
2021/11/23 04:27:08;;;;;;;;;32.00;24.50;;;;;;;;5037370;28;45397;-77
2021/11/23 04:29:33;;;;;;;;;24.00;21.75;;;;;;;;5037653;28;47055;-76
2021/11/23 04:31:59;;;;;;;;;19.50;19.50;;;;;;;;5036956;28;45450;-78
2021/11/23 04:34:24;;;;;;;;;29.25;25.50;;;;;;;;5018719;28;45552;-78
2021/11/23 04:36:49;;;;;;;;;28.75;22.50;;;;;;;;5036628;28;45379;-78
2021/11/23 04:39:14;;;;;;;;;30.00;23.50;;;;;;;;5036444;28;46301;-78
2021/11/23 04:41:40;;;;;;;;;28.50;25.00;;;;;;;;5037265;28;45491;-78
2021/11/23 04:44:05;;;;;;;;;26.00;20.25;;;;;;;;5036440;28;45462;-77
2021/11/23 04:46:31;;;;;;;;;26.00;23.75;;;;;;;;5036524;28;45407;-78
2021/11/23 04:48:56;;;;;;;;;23.50;22.00;;;;;;;;5036712;28;46938;-78
2021/11/23 04:51:22;;;;;;;;;23.75;21.25;;;;;;;;5036577;28;45421;-75
2021/11/23 04:53:47;;;;;;;;;22.00;21.00;;;;;;;;5037365;28;45430;-78
2021/11/23 04:56:12;;;;;;;;;31.75;27.00;;;;;;;;5036039;28;45582;-79
2021/11/23 04:58:37;;;;;;;;;25.50;24.75;;;;;;;;5035852;28;45425;-76
2021/11/23 05:01:03;;;;;;;;;25.75;22.50;;;;;;;;5036168;28;45382;-77
2021/11/23 05:03:28;;;;;;;;;20.25;20.25;;;;;;;;5036615;28;45643;-77
2021/11/23 05:05:53;;;;;;;;;20.50;20.00;;;;;;;;5018413;28;45372;-79
2021/11/23 05:08:18;;;;;;;;;23.75;21.50;;;;;;;;5035426;28;46062;-79
2021/11/23 05:10:44;;;;;;;;;24.00;22.00;;;;;;;;5035737;28;45498;-78
2021/11/23 05:13:09;;;;;;;;;21.75;17.00;;;;;;;;5036285;28;45395;-78
2021/11/23 05:15:34;;;;;;;;;23.00;20.75;;;;;;;;5036262;28;45416;-78
2021/11/23 05:17:59;;;;;;;;;24.50;19.25;;;;;;;;5036217;28;46171;-77
2021/11/23 05:20:25;;;;;;;;;28.50;23.75;;;;;;;;5035492;28;45498;-79
2021/11/23 05:22:50;;;;;;;;;25.50;20.75;;;;;;;;5035987;28;45435;-78
2021/11/23 05:25:15;;;;;;;;;23.50;21.50;;;;;;;;5035751;28;45486;-78
2021/11/23 05:27:41;;;;;;;;;38.25;32.75;;;;;;;;5035766;28;45453;-78
2021/11/23 05:30:07;;;;;;;;;22.25;22.25;;;;;;;;5034368;28;45369;-76
2021/11/23 05:32:32;;;;;;;;;31.25;23.00;;;;;;;;5035854;28;45438;-78
2021/11/23 05:34:57;;;;;;;;;26.50;22.25;;;;;;;;5034923;28;45443;-78
2021/11/23 05:37:22;;;;;;;;;24.75;21.50;;;;;;;;5035325;28;49222;-78
2021/11/23 05:39:48;;;;;;;;;24.25;19.75;;;;;;;;5035250;28;45351;-77
2021/11/23 05:42:13;;;;;;;;;27.75;24.50;;;;;;;;5035405;28;45389;-78
2021/11/23 05:44:38;;;;;;;;;24.25;21.75;;;;;;;;5035845;28;45478;-77
2021/11/23 05:47:04;;;;;;;;;27.00;22.50;;;;;;;;5035218;28;47120;-77
2021/11/23 05:49:29;;;;;;;;;20.00;20.00;;;;;;;;5035641;28;45423;-77
2021/11/23 05:51:55;;;;;;;;;28.75;23.75;;;;;;;;5037434;28;45513;-77
2021/11/23 05:54:20;;;;;;;;;35.25;26.00;;;;;;;;5036256;28;45517;-77
2021/11/23 05:56:47;;;;;;;;;26.00;19.00;;;;;;;;5017995;28;46082;-78
2021/11/23 05:59:12;;;;;;;;;26.00;25.00;;;;;;;;5017055;28;45662;-78
2021/11/23 06:01:37;;;;;;;;;25.50;21.00;;;;;;;;5035052;28;45424;-76
2021/11/23 06:04:02;;;;;;;;;35.00;28.25;;;;;;;;5034672;28;45571;-77
2021/11/23 06:06:28;;;;;;;;;31.50;24.50;;;;;;;;5034781;28;46255;-72
2021/11/23 06:08:54;;;;;;;;;26.00;25.00;;;;;;;;5035149;28;45561;-78
2021/11/23 06:11:19;;;;;;;;;27.00;23.50;;;;;;;;5034360;28;45356;-78
2021/11/23 06:13:44;;;;;;;;;25.00;22.50;;;;;;;;5034785;28;45528;-77
2021/11/23 06:16:10;;;;;;;;;25.25;21.00;;;;;;;;5034527;28;46270;-78
2021/11/23 06:18:35;;;;;;;;;26.75;24.50;;;;;;;;5015559;28;45421;-79
2021/11/23 06:21:00;;;;;;;;;23.50;21.75;;;;;;;;5034122;28;45307;-79
2021/11/23 06:23:26;;;;;;;;;21.00;16.00;;;;;;;;5033183;28;45245;-78
2021/11/23 06:25:53;;;;;;;;;29.50;27.25;;;;;;;;5034276;28;46473;-76
2021/11/23 06:28:19;;;;;;;;;26.75;25.00;;;;;;;;5034575;28;45269;-79
2021/11/23 06:30:45;;;;;;;;;21.75;17.00;;;;;;;;5033817;28;45503;-78
2021/11/23 06:33:10;;;;;;;;;22.75;18.50;;;;;;;;5033638;28;45331;-79
2021/11/23 06:35:36;;;;;;;;;18.25;17.50;;;;;;;;5034965;28;46514;-75
2021/11/23 06:38:01;;;;;;;;;19.25;17.25;;;;;;;;5035011;28;45890;-81
2021/11/23 06:40:27;;;;;;;;;20.50;18.25;;;;;;;;5034189;28;45379;-79
2021/11/23 06:42:52;;;;;;;;;21.00;18.50;;;;;;;;5033315;28;45474;-78
2021/11/23 06:45:17;;;;;;;;;35.75;30.50;;;;;;;;5033861;28;46106;-78
2021/11/23 06:47:42;;;;;;;;;19.25;19.00;;;;;;;;5034037;28;45527;-78
2021/11/23 06:50:08;;;;;;;;;23.50;20.25;;;;;;;;5015542;28;45376;-79
2021/11/23 06:52:34;;;;;;;;;29.00;23.50;;;;;;;;5034227;28;45322;-78
2021/11/23 06:54:59;;;;;;;;;22.75;21.00;;;;;;;;5032332;28;48060;-78
2021/11/23 06:57:24;;;;;;;;;25.75;21.50;;;;;;;;5033572;28;45484;-78
2021/11/23 06:59:49;;;;;;;;;21.50;20.50;;;;;;;;5034317;28;45377;-79
2021/11/23 07:02:15;;;;;;;;;21.00;20.25;;;;;;;;5032766;28;45468;-78
2021/11/23 07:04:40;;;;;;;;;28.50;23.25;;;;;;;;5032857;28;46891;-78
2021/11/23 07:07:06;;;;;;;;;20.00;18.25;;;;;;;;5032907;28;45371;-79
2021/11/23 07:09:31;;;;;;;;;21.50;18.25;;;;;;;;5033472;28;45533;-79
2021/11/23 07:11:57;;;;;;;;;20.00;16.75;;;;;;;;5033899;28;45328;-79
2021/11/23 07:14:22;;;;;;;;;33.00;24.00;;;;;;;;5032736;28;45505;-78
2021/11/23 07:16:47;;;;;;;;;22.50;18.50;;;;;;;;5014365;28;46081;-80
2021/11/23 07:19:13;;;;;;;;;23.50;19.50;;;;;;;;5032760;28;45427;-78
2021/11/23 07:21:39;;;;;;;;;28.25;22.25;;;;;;;;5032792;28;45455;-78
2021/11/23 07:24:04;;;;;;;;;21.00;20.25;;;;;;;;5032972;28;47352;-79
2021/11/23 07:26:31;;;;;;;;;27.75;22.50;;;;;;;;5034417;28;46070;-80
2021/11/23 07:28:56;;;;;;;;;20.50;19.25;;;;;;;;5034555;28;47301;-79
2021/11/23 07:31:22;;;;;;;;;31.75;24.75;;;;;;;;5014670;28;45397;-79
2021/11/23 07:33:47;;;;;;;;;28.00;24.25;;;;;;;;5032749;28;45357;-79
2021/11/23 07:36:13;;;;;;;;;28.50;26.00;;;;;;;;5032276;28;45407;-77
2021/11/23 07:38:38;;;;;;;;;23.00;21.25;;;;;;;;5033213;28;45426;-79
2021/11/23 07:41:03;;;;;;;;;25.25;23.75;;;;;;;;5032822;28;45525;-80
2021/11/23 07:43:28;;;;;;;;;30.00;22.75;;;;;;;;5014208;28;46091;-79
2021/11/23 07:45:53;;;;;;;;;24.00;20.25;;;;;;;;5033381;28;45475;-78
2021/11/23 07:48:19;;;;;;;;;22.75;21.25;;;;;;;;5033763;28;45440;-79
2021/11/23 07:50:44;;;;;;;;;25.00;19.25;;;;;;;;5014911;28;45629;-79
2021/11/23 07:53:09;;;;;;;;;27.25;21.75;;;;;;;;5013982;28;47522;-80
2021/11/23 07:55:35;;;;;;;;;20.00;19.00;;;;;;;;5036070;28;45418;-78
2021/11/23 07:58:00;;;;;;;;;27.75;22.50;;;;;;;;5037470;28;45383;-79
2021/11/23 08:00:26;;;;;;;;;19.00;17.50;;;;;;;;5036612;28;45554;-79
2021/11/23 08:02:52;;;;;;;;;32.25;26.25;;;;;;;;5037413;28;45638;-79
2021/11/23 08:05:17;;;;;;;;;24.75;22.75;;;;;;;;5036384;28;45418;-80
2021/11/23 08:07:42;;;;;;;;;24.00;21.00;;;;;;;;5035893;28;45341;-79
2021/11/23 08:10:08;;;;;;;;;21.25;17.50;;;;;;;;5037143;28;45429;-79
2021/11/23 08:12:33;;;;;;;;;24.75;19.75;;;;;;;;5037562;28;45319;-79
2021/11/23 08:14:58;;;;;;;;;18.50;17.00;;;;;;;;5037076;28;45268;-79
2021/11/23 08:17:24;;;;;;;;;18.25;17.50;;;;;;;;5036433;28;45205;-79
2021/11/23 08:19:49;;;;;;;;;21.50;19.75;;;;;;;;5035901;28;45450;-78
2021/11/23 08:22:14;;;;;;;;;22.00;18.50;;;;;;;;5017400;28;47326;-78
2021/11/23 08:24:39;;;;;;;;;23.00;16.75;;;;;;;;5017713;28;45487;-78
2021/11/23 08:27:05;;;;;;;;;13.75;13.25;;;;;;;;5036299;28;45144;-79
2021/11/23 08:29:30;;;;;;;;;21.75;20.25;;;;;;;;5017805;28;45381;-78
2021/11/23 08:31:56;;;;;;;;;13.75;11.50;;;;;;;;5035944;28;46784;-78
2021/11/23 08:34:22;;;;;;;;;21.50;16.00;;;;;;;;5036327;28;45435;-79
2021/11/23 08:36:48;;;;;;;;;16.00;15.25;;;;;;;;5036474;28;45363;-79
2021/11/23 08:39:14;;;;;;;;;14.25;14.25;;;;;;;;5036385;28;45412;-78
2021/11/23 08:41:39;;;;;;;;;19.00;17.25;;;;;;;;5036786;28;46253;-76
2021/11/23 08:44:04;;;;;;;;;22.50;18.75;;;;;;;;5035586;28;45458;-78
2021/11/23 08:46:29;;;;;;;;;12.00;11.75;;;;;;;;5036133;28;45363;-77
2021/11/23 08:48:55;;;;;;;;;16.75;14.00;;;;;;;;5035032;28;45360;-77
2021/11/23 08:51:24;;;;;;;;;18.25;15.50;;;;;;;;5035752;28;45392;-78
2021/11/23 08:53:49;;;;;;;;;18.25;11.75;;;;;;;;5036026;28;45241;-79
2021/11/23 08:56:15;;;;;;;;;12.75;11.75;;;;;;;;5035271;28;45258;-79
2021/11/23 08:58:41;;;;;;;;;16.00;13.75;;;;;;;;5035723;28;45289;-78
2021/11/23 09:01:07;;;;;;;;;16.50;12.50;;;;;;;;5035849;28;46250;-77
2021/11/23 09:03:32;;;;;;;;;16.25;16.25;;;;;;;;5035971;28;45526;-79
2021/11/23 09:05:57;;;;;;;;;11.25;10.00;;;;;;;;5036357;28;45451;-77
2021/11/23 09:08:22;;;;;;;;;12.25;11.50;;;;;;;;5035363;28;45718;-78
2021/11/23 09:10:48;;;;;;;;;5.50;2.50;;;;;;;;5017601;28;47046;-78
2021/11/23 09:13:13;;;;;;;;;11.00;7.50;;;;;;;;5034131;28;45470;-78
2021/11/23 09:15:39;;;;;;;;;9.50;8.25;;;;;;;;5035117;28;45464;-76
2021/11/23 09:18:05;;;;;;;;;8.75;8.00;;;;;;;;5034999;28;45525;-78
2021/11/23 09:20:37;;;;;;;;;11.25;8.25;;;;;;;;5034948;28;46583;-78
2021/11/23 09:23:04;;;;;;;;;6.00;6.00;;;;;;;;5034692;28;45514;-78
2021/11/23 09:25:29;;;;;;;;;5.00;5.00;;;;;;;;5035003;28;45331;-78
2021/11/23 09:27:59;;;;;;;;;8.75;7.50;;;;;;;;5034519;28;45473;-78
2021/11/23 09:30:24;;;;;;;;;11.00;6.00;;;;;;;;5034987;28;45408;-77
2021/11/23 09:32:50;;;;;;;;;5.00;5.00;;;;;;;;5035687;28;45452;-76
2021/11/23 09:35:15;;;;;;;;;7.25;7.25;;;;;;;;5034866;28;45355;-78
2021/11/23 09:37:41;;;;;;;;;7.75;5.50;;;;;;;;5034855;28;45411;-77
2021/11/23 09:40:06;;;;;;;;;7.75;5.50;;;;;;;;5035116;28;45570;-78
2021/11/23 09:42:31;;;;;;;;;7.00;7.00;;;;;;;;5034759;28;45414;-77
2021/11/23 09:44:57;;;;;;;;;7.75;6.75;;;;;;;;5036931;28;46944;-78
2021/11/23 09:47:24;;;;;;;;;8.00;6.25;;;;;;;;5035286;28;45303;-77
2021/11/23 09:49:49;;;;;;;;;7.50;7.25;;;;;;;;5036070;28;45532;-79
2021/11/23 09:52:15;;;;;;;;;7.75;5.50;;;;;;;;5016756;28;45580;-79
2021/11/23 09:54:40;;;;;;;;;6.00;6.00;;;;;;;;5035037;28;45558;-78
2021/11/23 09:57:06;;;;;;;;;6.00;6.00;;;;;;;;5034565;28;45429;-77
2021/11/23 09:59:31;;;;;;;;;6.00;4.00;;;;;;;;5034571;28;47192;-76
2021/11/23 10:01:58;;;;;;;;;10.75;8.50;;;;;;;;5016574;28;45612;-76
2021/11/23 10:04:25;;;;;;;;;6.75;5.00;;;;;;;;5034758;28;45462;-77
2021/11/23 10:06:53;;;;;;;;;6.00;3.00;;;;;;;;5035109;28;45458;-79
2021/11/23 10:09:30;;;;;;;;;6.75;4.50;;;;;;;;5034040;28;45333;-77
2021/11/23 10:12:16;;;;;;;;;3.00;3.00;;;;;;;;5030363;28;45386;-76
2021/11/23 10:15:01;;;;;;;;;5.00;3.75;;;;;;;;5031613;28;45406;-77
2021/11/23 10:17:26;;;;;;;;;6.75;5.50;;;;;;;;5032801;28;45230;-77
2021/11/23 10:19:52;;;;;;;;;4.00;3.00;;;;;;;;5032877;28;46488;-78
2021/11/23 10:22:30;;;;;;;;;4.50;4.50;;;;;;;;5033236;28;45226;-78
2021/11/23 10:25:00;;;;;;;;;3.00;3.00;;;;;;;;5033607;28;45407;-78
2021/11/23 10:27:25;;;;;;;;;7.00;6.00;;;;;;;;5034533;28;45470;-79
2021/11/23 10:29:51;;;;;;;;;4.00;4.00;;;;;;;;5034115;28;46153;-77
2021/11/23 10:32:16;;;;;;;;;3.00;3.00;;;;;;;;5033672;28;45322;-78
2021/11/23 10:34:43;;;;;;;;;2.50;2.50;;;;;;;;5033459;28;45470;-78
2021/11/23 10:37:09;;;;;;;;;2.50;2.50;;;;;;;;5035967;28;45423;-79
2021/11/23 10:39:34;;;;;;;;;3.00;3.00;;;;;;;;5034122;28;46612;-76
2021/11/23 10:42:00;;;;;;;;;2.75;1.75;;;;;;;;5033963;28;45425;-77
2021/11/23 10:44:27;;;;;;;;;2.00;2.00;;;;;;;;5033275;28;45320;-78
2021/11/23 10:46:57;;;;;;;;;3.00;1.25;;;;;;;;5032697;28;45482;-77
2021/11/23 10:49:30;;;;;;;;;1.50;1.50;;;;;;;;5032947;28;47132;-79
2021/11/23 10:51:55;;;;;;;;;4.75;3.25;;;;;;;;5033542;28;45471;-78
2021/11/23 10:54:20;;;;;;;;;1.00;1.00;;;;;;;;5033674;28;45504;-78
2021/11/23 10:56:59;;;;;;;;;4.00;4.00;;;;;;;;5033692;28;45378;-78
2021/11/23 10:59:25;;;;;;;;;1.00;1.00;;;;;;;;5033182;28;46510;-79
2021/11/23 11:01:50;;;;;;;;;2.00;2.00;;;;;;;;5033511;28;45250;-78
2021/11/23 11:04:16;;;;;;;;;3.50;3.50;;;;;;;;5033204;28;45431;-79
2021/11/23 11:06:41;;;;;;;;;2.75;1.75;;;;;;;;5033605;28;45269;-79
2021/11/23 11:09:07;;;;;;;;;1.75;1.75;;;;;;;;5033096;28;46355;-77
2021/11/23 11:11:33;;;;;;;;;1.25;1.00;;;;;;;;5033909;28;45368;-79
2021/11/23 11:13:58;;;;;;;;;1.00;1.00;;;;;;;;5033080;28;45362;-77
2021/11/23 11:16:23;;;;;;;;;1.00;1.00;;;;;;;;5033599;28;45454;-79
2021/11/23 11:19:08;;;;;;;;;2.33;2.33;;;;;;;;5032796;28;46301;-79
2021/11/23 11:21:37;;;;;;;;;4.67;4.00;;;;;;;;5016836;28;45358;-79
2021/11/23 11:24:21;;;;;;;;;2.00;2.00;;;;;;;;5032678;28;45421;-78
2021/11/23 11:26:52;;;;;;;;;5.00;4.00;;;;;;;;5033347;28;45517;-80
2021/11/23 11:29:30;;;;;;;;;1.00;1.00;;;;;;;;5031592;28;46111;-78
2021/11/23 11:31:56;;;;;;;;;0.67;0.67;;;;;;;;5031521;28;45439;-79
2021/11/23 11:34:23;;;;;;;;;3.00;3.00;;;;;;;;5031999;28;45458;-78
2021/11/23 11:37:02;;;;;;;;;1.00;1.00;;;;;;;;5032504;28;45419;-77
2021/11/23 11:39:42;;;;;;;;;3.33;3.00;;;;;;;;5015778;28;46394;-78
2021/11/23 11:42:09;;;;;;;;;13.67;8.67;;;;;;;;5029229;28;45391;-78
2021/11/23 11:44:41;;;;;;;;;2.00;2.00;;;;;;;;5032282;28;45419;-79
2021/11/23 11:47:11;;;;;;;;;1.00;1.00;;;;;;;;5032295;28;45359;-79
2021/11/23 11:49:48;;;;;;;;;0.00;0.00;;;;;;;;5031813;28;46366;-79
2021/11/23 11:52:13;;;;;;;;;4.67;4.67;;;;;;;;5032021;28;45372;-79
2021/11/23 11:54:39;;;;;;;;;2.33;2.00;;;;;;;;5031596;28;45559;-79
2021/11/23 11:57:24;;;;;;;;;1.00;1.00;;;;;;;;5032283;28;45515;-78
2021/11/23 11:59:49;;;;;;;;;1.00;1.00;;;;;;;;5031450;28;46145;-80
2021/11/23 12:02:18;;;;;;;;;4.00;3.00;;;;;;;;5031735;28;45332;-77
2021/11/23 12:04:54;;;;;;;;;3.00;3.00;;;;;;;;5031568;28;45345;-78
2021/11/23 12:07:19;;;;;;;;;5.00;4.00;;;;;;;;5031465;28;45320;-79
2021/11/23 12:09:49;;;;;;;;;4.67;3.00;;;;;;;;5031582;28;46165;-79
2021/11/23 12:12:14;;;;;;;;;4.00;2.67;;;;;;;;5031832;28;45487;-79
2021/11/23 12:14:52;;;;;;;;;1.00;1.00;;;;;;;;5032865;28;45456;-79
2021/11/23 12:17:26;;;;;;;;;1.00;1.00;;;;;;;;5031988;28;45531;-78
2021/11/23 12:20:05;;;;;;;;;2.33;2.33;;;;;;;;5031397;28;47145;-79
2021/11/23 12:22:37;;;;;;;;;1.67;1.67;;;;;;;;5031336;28;45572;-80
2021/11/23 12:25:03;;;;;;;;;3.67;0.67;;;;;;;;5032209;28;45419;-77
2021/11/23 12:27:33;;;;;;;;;1.67;1.67;;;;;;;;5015870;28;45218;-77
2021/11/23 12:29:58;;;;;;;;;4.00;3.00;;;;;;;;5027742;28;46403;-77
2021/11/23 12:32:30;;;;;;;;;3.00;3.00;;;;;;;;5029997;28;45455;-78
2021/11/23 12:34:55;;;;;;;;;2.67;2.00;;;;;;;;5030674;28;45240;-78
2021/11/23 12:37:50;;;;;;;;;1.33;1.33;;;;;;;;5030916;28;45512;-78
2021/11/23 12:40:19;;;;;;;;;4.00;4.00;;;;;;;;5009230;28;46657;-77
2021/11/23 12:42:52;;;;;;;;;5.00;2.67;;;;;;;;5034591;28;45546;-77
2021/11/23 12:45:36;;;;;;;;;1.67;1.00;;;;;;;;5034967;28;45570;-78
2021/11/23 12:48:06;;;;;;;;;7.67;4.67;;;;;;;;5031076;28;45297;-77
2021/11/23 12:50:32;;;;;;;;;31.50;21.25;;;;;;;;5033691;28;46381;-77
2021/11/23 12:53:06;;;;;;;;;3.67;2.67;;;;;;;;5034477;28;45533;-76
2021/11/23 12:55:31;;;;;;;;;1.67;1.33;;;;;;;;5034414;28;45348;-78
2021/11/23 12:57:57;;;;;;;;;7.00;6.00;;;;;;;;5016542;28;45551;-77
2021/11/23 13:00:22;;;;;;;;;4.67;3.00;;;;;;;;5016145;28;45942;-77
2021/11/23 13:02:51;;;;;;;;;12.00;10.00;;;;;;;;5035033;28;45442;-77
2021/11/23 13:05:24;;;;;;;;;2.00;2.00;;;;;;;;5034601;28;45375;-78
2021/11/23 13:07:52;;;;;;;;;2.33;2.33;;;;;;;;5016641;28;45520;-78
2021/11/23 13:10:17;;;;;;;;;2.33;2.00;;;;;;;;5034323;28;46549;-77
2021/11/23 13:12:46;;;;;;;;;0.33;0.33;;;;;;;;5034245;28;45359;-78
2021/11/23 13:15:14;;;;;;;;;0.33;0.33;;;;;;;;5034657;28;45307;-77
2021/11/23 13:17:40;;;;;;;;;2.33;2.00;;;;;;;;5035237;28;45439;-77
2021/11/23 13:20:07;;;;;;;;;1.33;1.33;;;;;;;;5033424;28;46180;-77
2021/11/23 13:22:39;;;;;;;;;0.00;0.00;;;;;;;;5034227;28;45369;-77
2021/11/23 13:25:05;;;;;;;;;1.00;1.00;;;;;;;;5034800;28;45281;-77
2021/11/23 13:27:30;;;;;;;;;0.33;0.33;;;;;;;;5034581;28;45235;-76
2021/11/23 13:29:56;;;;;;;;;0.00;0.00;;;;;;;;5030279;28;48263;-78
2021/11/23 13:32:21;;;;;;;;;1.00;1.00;;;;;;;;5033671;28;45515;-77
2021/11/23 13:34:46;;;;;;;;;2.00;2.00;;;;;;;;5033994;28;45347;-77
2021/11/23 13:37:11;;;;;;;;;2.67;1.67;;;;;;;;5016441;28;45483;-77
2021/11/23 13:39:37;;;;;;;;;1.33;1.00;;;;;;;;5034725;28;46330;-76
2021/11/23 13:42:03;;;;;;;;;1.33;1.33;;;;;;;;5035253;28;45817;-79
2021/11/23 13:44:30;;;;;;;;;1.00;0.67;;;;;;;;5034495;28;45298;-78
2021/11/23 13:46:57;;;;;;;;;0.67;0.67;;;;;;;;5033796;28;45511;-76
2021/11/23 13:49:28;;;;;;;;;2.33;1.67;;;;;;;;5033081;28;46398;-77
2021/11/23 13:52:22;;;;;;;;;1.67;0.33;;;;;;;;5033076;28;45397;-77
2021/11/23 13:54:54;;;;;;;;;1.67;1.67;;;;;;;;5002691;28;45366;-77
2021/11/23 13:57:21;;;;;;;;;0.67;0.67;;;;;;;;5033824;28;45393;-77
2021/11/23 13:59:52;;;;;;;;;0.33;0.33;;;;;;;;5033789;28;47389;-78
2021/11/23 14:02:17;;;;;;;;;0.00;0.00;;;;;;;;5033534;28;45381;-76
2021/11/23 14:04:43;;;;;;;;;2.00;2.00;;;;;;;;5033431;28;45304;-77
2021/11/23 14:07:10;;;;;;;;;2.00;2.00;;;;;;;;5034153;28;45487;-77
2021/11/23 14:09:50;;;;;;;;;3.67;2.00;;;;;;;;5034123;28;45541;-78
2021/11/23 14:12:17;;;;;;;;;1.00;1.00;;;;;;;;5032985;28;45332;-78
2021/11/23 14:14:55;;;;;;;;;1.67;1.67;;;;;;;;5034348;28;45426;-77
2021/11/23 14:17:20;;;;;;;;;1.33;1.33;;;;;;;;5032331;28;45378;-78
2021/11/23 14:20:05;;;;;;;;;2.00;2.00;;;;;;;;5032782;28;45513;-78
2021/11/23 14:22:40;;;;;;;;;2.33;2.33;;;;;;;;5032997;28;49078;-78
2021/11/23 14:25:19;;;;;;;;;1.33;0.67;;;;;;;;5033382;28;45415;-78